Time;durP1;ratioP1;P1;durP2;ratioP2;P2;SDS_P1;SDS_P2;PMS_P1;PMS_P2;Temp;Humidity;BMP_temperature;BMP_pressure;BME280_temperature;BME280_humidity;BME280_pressure;Samples;Min_cycle;Max_cycle;Signal;HPM_P1;HPM_P2
2021/07/26 00:00:56;;;;;;;3.65;2.17;;;;;24.70;100738.00;;;;5084737;28;20221;-76
2021/07/26 00:03:24;;;;;;;2.03;1.80;;;;;24.70;100738.00;;;;5074959;28;20198;-76
2021/07/26 00:05:55;;;;;;;2.40;2.20;;;;;24.60;100732.00;;;;5079828;28;20255;-76
2021/07/26 00:08:23;;;;;;;2.28;2.00;;;;;24.70;100731.00;;;;5083407;28;20239;-76
2021/07/26 00:10:59;;;;;;;2.35;1.95;;;;;24.50;100727.00;;;;5068404;28;20195;-76
2021/07/26 00:13:28;;;;;;;1.90;1.60;;;;;24.60;100730.00;;;;5068275;28;20183;-76
2021/07/26 00:15:55;;;;;;;1.92;1.73;;;;;24.60;100720.00;;;;5073689;28;20213;-76
2021/07/26 00:18:23;;;;;;;2.33;2.10;;;;;24.50;100734.00;;;;5086594;28;20221;-76
2021/07/26 00:20:50;;;;;;;2.10;1.90;;;;;24.50;100727.00;;;;5086537;28;20233;-76
2021/07/26 00:23:17;;;;;;;1.90;1.70;;;;;24.50;100724.00;;;;5088724;28;20202;-76
2021/07/26 00:25:45;;;;;;;2.92;2.08;;;;;24.50;100733.00;;;;5085175;28;20191;-76
2021/07/26 00:28:12;;;;;;;2.15;1.80;;;;;24.40;100733.00;;;;5073912;28;20198;-76
2021/07/26 00:30:42;;;;;;;3.13;2.40;;;;;24.40;100732.00;;;;5087766;28;20194;-76
2021/07/26 00:33:57;;;;;;;2.70;2.33;;;;;24.30;100719.00;;;;5086694;28;20218;-76
2021/07/26 00:36:24;;;;;;;1.95;1.75;;;;;24.30;100714.00;;;;5047581;28;20226;-76
2021/07/26 00:38:51;;;;;;;2.28;2.08;;;;;24.30;100717.00;;;;5084750;28;20206;-76
2021/07/26 00:41:18;;;;;;;3.17;1.98;;;;;24.30;100715.00;;;;5077484;28;20226;-76
2021/07/26 00:43:46;;;;;;;2.17;1.98;;;;;24.20;100714.00;;;;5068456;28;20191;-76
2021/07/26 00:46:14;;;;;;;3.35;1.90;;;;;24.20;100712.00;;;;5068574;28;20197;-76
2021/07/26 00:48:41;;;;;;;2.30;2.10;;;;;24.20;100708.00;;;;5068143;28;20198;-76
2021/07/26 00:51:09;;;;;;;2.63;2.42;;;;;24.20;100709.00;;;;5082882;28;20316;-76
2021/07/26 00:53:36;;;;;;;2.88;2.50;;;;;24.20;100708.00;;;;5085466;28;20206;-76
2021/07/26 00:56:03;;;;;;;2.42;1.92;;;;;24.20;100716.00;;;;5072877;28;20261;-76
2021/07/26 00:58:31;;;;;;;2.95;2.50;;;;;24.10;100722.00;;;;5072201;28;20214;-76
2021/07/26 01:00:59;;;;;;;3.67;2.38;;;;;24.10;100719.00;;;;5087844;28;20214;-76
2021/07/26 01:03:27;;;;;;;3.85;2.40;;;;;24.10;100720.00;;;;5080715;28;20243;-76
2021/07/26 01:05:54;;;;;;;2.90;2.45;;;;;24.10;100709.00;;;;5070989;28;20199;-76
2021/07/26 01:08:22;;;;;;;2.78;2.47;;;;;24.10;100715.00;;;;5071741;28;20274;-76
2021/07/26 01:10:49;;;;;;;2.97;2.38;;;;;24.00;100704.00;;;;5087568;28;20285;-76
2021/07/26 01:13:17;;;;;;;2.75;2.53;;;;;24.00;100709.00;;;;5071238;28;20213;-76
2021/07/26 01:15:44;;;;;;;2.97;2.60;;;;;24.00;100709.00;;;;5070951;28;20194;-76
2021/07/26 01:18:21;;;;;;;2.63;2.30;;;;;23.90;100710.00;;;;5071701;28;20199;-76
2021/07/26 01:20:51;;;;;;;2.53;2.28;;;;;23.90;100714.00;;;;5070392;28;20317;-76
2021/07/26 01:23:19;;;;;;;4.50;2.13;;;;;24.00;100711.00;;;;5071828;28;20194;-76
2021/07/26 01:25:46;;;;;;;3.33;2.92;;;;;24.00;100707.00;;;;5074080;28;20210;-76
2021/07/26 01:28:15;;;;;;;3.10;2.53;;;;;23.90;100705.00;;;;5072318;28;20198;-76
2021/07/26 01:30:43;;;;;;;3.17;2.60;;;;;23.90;100705.00;;;;5076365;28;20221;-76
2021/07/26 01:33:10;;;;;;;3.92;2.92;;;;;23.90;100709.00;;;;5090686;28;20194;-76
2021/07/26 01:35:38;;;;;;;2.60;2.35;;;;;23.90;100710.00;;;;5076266;28;20197;-76
2021/07/26 01:38:07;;;;;;;4.38;2.90;;;;;23.90;100712.00;;;;5078810;28;20202;-77
2021/07/26 01:40:37;;;;;;;3.13;2.70;;;;;23.90;100717.00;;;;5071612;28;20226;-77
2021/07/26 01:43:06;;;;;;;2.63;2.40;;;;;23.90;100712.00;;;;5078049;28;20230;-77
2021/07/26 01:45:34;;;;;;;3.40;3.08;;;;;23.90;100717.00;;;;5071848;28;20202;-77
2021/07/26 01:48:05;;;;;;;2.97;2.42;;;;;23.80;100714.00;;;;5070243;28;20195;-76
2021/07/26 01:50:46;;;;;;;3.63;2.92;;;;;23.80;100720.00;;;;5087190;28;20211;-77
2021/07/26 01:53:15;;;;;;;3.63;2.53;;;;;23.80;100706.00;;;;5071213;28;20195;-77
2021/07/26 01:55:43;;;;;;;3.40;2.78;;;;;23.80;100713.00;;;;5084871;28;20210;-77
2021/07/26 01:58:10;;;;;;;3.60;2.65;;;;;23.80;100712.00;;;;5084425;28;20210;-77
2021/07/26 02:00:37;;;;;;;3.20;2.53;;;;;23.90;100713.00;;;;5073120;28;20272;-77
2021/07/26 02:03:05;;;;;;;4.05;3.25;;;;;23.80;100712.00;;;;5089264;28;20211;-77
2021/07/26 02:05:32;;;;;;;4.40;2.80;;;;;23.80;100712.00;;;;5075749;28;20206;-77
2021/07/26 02:07:59;;;;;;;3.95;2.95;;;;;23.80;100713.00;;;;5069306;28;20671;-77
2021/07/26 02:10:28;;;;;;;4.63;2.88;;;;;23.80;100715.00;;;;5070077;28;20693;-77
2021/07/26 02:12:57;;;;;;;3.40;3.05;;;;;23.80;100716.00;;;;5077427;28;20683;-77
2021/07/26 02:15:24;;;;;;;4.20;2.95;;;;;23.80;100718.00;;;;5085653;28;20209;-76
2021/07/26 02:17:52;;;;;;;4.38;3.17;;;;;23.80;100720.00;;;;5077502;28;20202;-77
2021/07/26 02:20:20;;;;;;;3.08;2.78;;;;;23.80;100721.00;;;;5073416;28;20234;-77
2021/07/26 02:22:47;;;;;;;3.95;2.97;;;;;23.80;100714.00;;;;5070100;28;20214;-77
2021/07/26 02:25:16;;;;;;;4.07;3.17;;;;;23.80;100724.00;;;;5084106;28;20206;-77
2021/07/26 02:27:45;;;;;;;3.47;2.88;;;;;23.80;100715.00;;;;5075816;28;20942;-77
2021/07/26 02:30:13;;;;;;;3.50;2.85;;;;;23.80;100717.00;;;;5085359;28;20202;-77
2021/07/26 02:32:40;;;;;;;3.10;2.72;;;;;23.80;100720.00;;;;5088867;28;20676;-77
2021/07/26 02:35:08;;;;;;;3.92;3.20;;;;;23.80;100723.00;;;;5088875;28;20206;-77
2021/07/26 02:37:36;;;;;;;3.72;3.25;;;;;23.80;100728.00;;;;5088987;28;20237;-77
2021/07/26 02:40:03;;;;;;;3.22;2.92;;;;;23.80;100721.00;;;;5069231;28;20198;-77
2021/07/26 02:42:31;;;;;;;3.65;3.20;;;;;23.90;100725.00;;;;5081635;28;20202;-77
2021/07/26 02:45:00;;;;;;;4.82;2.78;;;;;23.80;100726.00;;;;5070455;28;20195;-77
2021/07/26 02:47:27;;;;;;;3.22;2.88;;;;;23.90;100729.00;;;;5069853;28;20209;-76
2021/07/26 02:49:54;;;;;;;6.35;3.28;;;;;23.90;100723.00;;;;5082576;28;20198;-76
2021/07/26 02:52:21;;;;;;;3.40;2.97;;;;;23.80;100719.00;;;;5071229;28;20665;-77
2021/07/26 02:54:48;;;;;;;3.65;3.22;;;;;23.80;100722.00;;;;5085743;28;20202;-76
2021/07/26 02:57:16;;;;;;;3.97;3.30;;;;;23.80;100722.00;;;;5076192;28;20203;-77
2021/07/26 02:59:43;;;;;;;4.40;3.47;;;;;23.80;100729.00;;;;5069680;28;20537;-77
2021/07/26 03:02:12;;;;;;;5.25;3.17;;;;;23.80;100729.00;;;;5069823;28;20230;-76
2021/07/26 03:04:39;;;;;;;6.38;3.65;;;;;23.80;100723.00;;;;5069845;28;20199;-77
2021/07/26 03:07:06;;;;;;;3.53;2.83;;;;;23.80;100721.00;;;;5068709;28;20207;-77
2021/07/26 03:09:33;;;;;;;3.60;2.97;;;;;23.80;100725.00;;;;5070091;28;20233;-77
2021/07/26 03:12:00;;;;;;;3.90;2.85;;;;;23.80;100728.00;;;;5068748;28;20194;-77
2021/07/26 03:14:30;;;;;;;7.05;3.72;;;;;23.80;100732.00;;;;5069089;28;20249;-76
2021/07/26 03:16:57;;;;;;;3.97;3.25;;;;;23.80;100730.00;;;;5069161;28;20231;-77
2021/07/26 03:19:25;;;;;;;4.05;3.20;;;;;23.80;100727.00;;;;5067285;28;20199;-77
2021/07/26 03:22:28;;;;;;;3.67;3.05;;;;;23.70;100733.00;;;;5068699;28;20233;-77
2021/07/26 03:24:56;;;;;;;4.15;3.42;;;;;23.80;100736.00;;;;5050419;28;20206;-77
2021/07/26 03:27:24;;;;;;;3.42;3.03;;;;;23.80;100735.00;;;;5076070;28;20206;-77
2021/07/26 03:29:51;;;;;;;4.72;3.58;;;;;23.80;100729.00;;;;5069271;28;20261;-77
2021/07/26 03:32:18;;;;;;;4.20;3.60;;;;;23.80;100729.00;;;;5068605;28;20687;-77
2021/07/26 03:34:47;;;;;;;4.78;3.13;;;;;23.80;100728.00;;;;5068404;28;20195;-77
2021/07/26 03:37:14;;;;;;;3.53;3.22;;;;;23.80;100735.00;;;;5068532;28;20226;-77
2021/07/26 03:39:41;;;;;;;4.18;3.42;;;;;23.80;100738.00;;;;5068253;28;20199;-77
2021/07/26 03:42:09;;;;;;;4.57;3.53;;;;;23.80;100744.00;;;;5083642;28;20229;-77
2021/07/26 03:44:36;;;;;;;4.82;3.65;;;;;23.80;100738.00;;;;5083733;28;20672;-77
2021/07/26 03:47:04;;;;;;;4.75;3.38;;;;;23.80;100743.00;;;;5087292;28;20198;-77
2021/07/26 03:49:31;;;;;;;5.57;3.40;;;;;23.80;100737.00;;;;5082750;28;20198;-76
2021/07/26 03:51:59;;;;;;;5.43;3.70;;;;;23.80;100738.00;;;;5083009;28;20205;-77
2021/07/26 03:54:26;;;;;;;6.05;3.45;;;;;23.80;100738.00;;;;5068866;28;20199;-77
2021/07/26 03:56:57;;;;;;;5.25;4.10;;;;;23.80;100742.00;;;;5077287;28;20182;-77
2021/07/26 03:59:24;;;;;;;3.83;3.25;;;;;23.80;100739.00;;;;5078815;28;20638;-77
2021/07/26 04:01:55;;;;;;;5.97;3.50;;;;;23.80;100742.00;;;;5068522;28;20219;-77
2021/07/26 04:04:23;;;;;;;5.03;3.42;;;;;23.80;100748.00;;;;5068095;28;20684;-77
2021/07/26 04:06:53;;;;;;;4.90;3.38;;;;;23.80;100751.00;;;;5068475;28;20199;-77
2021/07/26 04:09:24;;;;;;;4.95;3.42;;;;;23.80;100749.00;;;;5079138;28;20313;-76
2021/07/26 04:11:57;;;;;;;4.30;3.65;;;;;23.80;100745.00;;;;5069216;28;20195;-76
2021/07/26 04:14:28;;;;;;;5.53;3.67;;;;;23.80;100747.00;;;;5077009;28;20207;-77
2021/07/26 04:16:55;;;;;;;4.13;3.13;;;;;23.80;100746.00;;;;5073020;28;20229;-76
2021/07/26 04:19:23;;;;;;;4.00;3.05;;;;;23.80;100749.00;;;;5074320;28;20289;-76
2021/07/26 04:21:50;;;;;;;4.40;2.92;;;;;23.80;100751.00;;;;5067572;28;20226;-77
2021/07/26 04:24:17;;;;;;;6.28;3.10;;;;;23.80;100756.00;;;;5085741;28;20201;-76
2021/07/26 04:26:46;;;;;;;3.60;2.47;;;;;23.80;100740.00;;;;5085575;28;20228;-76
2021/07/26 04:29:13;;;;;;;4.22;3.45;;;;;23.80;100746.00;;;;5068663;28;20199;-76
2021/07/26 04:31:40;;;;;;;4.25;2.85;;;;;23.80;100758.00;;;;5071140;28;20199;-77
2021/07/26 04:34:07;;;;;;;4.90;2.95;;;;;23.90;100748.00;;;;5077008;28;21055;-77
2021/07/26 04:36:35;;;;;;;3.65;3.13;;;;;23.90;100753.00;;;;5073396;28;20222;-76
2021/07/26 04:39:02;;;;;;;4.20;3.03;;;;;23.90;100756.00;;;;5080299;28;20186;-76
2021/07/26 04:41:30;;;;;;;4.00;3.03;;;;;23.90;100752.00;;;;5071287;28;20222;-77
2021/07/26 04:43:58;;;;;;;2.95;2.72;;;;;23.90;100752.00;;;;5082854;28;20595;-76
2021/07/26 04:46:25;;;;;;;4.00;3.35;;;;;23.90;100753.00;;;;5083216;28;20202;-76
2021/07/26 04:48:53;;;;;;;6.65;3.67;;;;;24.00;100753.00;;;;5090972;28;20198;-77
2021/07/26 04:51:20;;;;;;;4.55;3.85;;;;;24.00;100754.00;;;;5085514;28;20210;-76
2021/07/26 04:53:47;;;;;;;5.60;3.38;;;;;24.00;100759.00;;;;5087445;28;20657;-77
2021/07/26 04:56:14;;;;;;;4.53;3.20;;;;;24.00;100762.00;;;;5076066;28;20209;-77
2021/07/26 04:58:41;;;;;;;4.40;3.03;;;;;24.00;100747.00;;;;5089955;28;20198;-76
2021/07/26 05:01:10;;;;;;;6.25;4.22;;;;;24.10;100755.00;;;;5083823;28;20223;-76
2021/07/26 05:03:37;;;;;;;4.22;3.47;;;;;24.10;100757.00;;;;5089415;28;20198;-76
2021/07/26 05:06:07;;;;;;;6.05;3.70;;;;;24.10;100756.00;;;;5086256;28;20210;-77
2021/07/26 05:08:34;;;;;;;4.50;3.65;;;;;24.20;100747.00;;;;5086005;28;20642;-77
2021/07/26 05:11:02;;;;;;;3.72;3.25;;;;;24.20;100747.00;;;;5088222;28;20190;-76
2021/07/26 05:13:29;;;;;;;3.58;2.85;;;;;24.30;100753.00;;;;5079058;28;20247;-77
2021/07/26 05:15:56;;;;;;;4.22;3.22;;;;;24.30;100748.00;;;;5077749;28;20605;-77
2021/07/26 05:18:25;;;;;;;4.72;3.60;;;;;24.40;100753.00;;;;5084527;28;20568;-77
2021/07/26 05:20:52;;;;;;;4.10;3.70;;;;;24.40;100742.00;;;;5085918;28;20213;-77
2021/07/26 05:23:19;;;;;;;5.00;2.97;;;;;24.50;100757.00;;;;5086446;28;20219;-77
2021/07/26 05:25:47;;;;;;;6.13;3.95;;;;;24.50;100752.00;;;;5088203;28;20205;-77
2021/07/26 05:28:15;;;;;;;4.45;3.47;;;;;24.60;100755.00;;;;5082734;28;20198;-77
2021/07/26 05:30:42;;;;;;;5.00;3.85;;;;;24.60;100747.00;;;;5085231;28;20441;-77
2021/07/26 05:33:09;;;;;;;3.92;3.42;;;;;24.70;100751.00;;;;5081700;28;20207;-76
2021/07/26 05:35:38;;;;;;;4.68;3.65;;;;;24.70;100757.00;;;;5074409;28;20209;-76
2021/07/26 05:38:05;;;;;;;6.07;3.83;;;;;24.70;100756.00;;;;5087458;28;20683;-76
2021/07/26 05:40:33;;;;;;;6.35;4.05;;;;;24.80;100752.00;;;;5084638;28;20207;-75
2021/07/26 05:43:00;;;;;;;4.38;3.75;;;;;24.80;100752.00;;;;5084412;28;20226;-75
2021/07/26 05:45:28;;;;;;;3.97;3.17;;;;;24.90;100757.00;;;;5079644;28;20202;-75
2021/07/26 05:47:55;;;;;;;3.83;3.33;;;;;24.90;100762.00;;;;5081046;28;20199;-76
2021/07/26 05:50:22;;;;;;;4.13;2.97;;;;;25.00;100760.00;;;;5083817;28;20198;-75
2021/07/26 05:52:51;;;;;;;4.40;3.58;;;;;25.00;100761.00;;;;5085990;28;20191;-75
2021/07/26 05:55:18;;;;;;;4.97;3.97;;;;;25.00;100766.00;;;;5079671;28;20191;-76
2021/07/26 05:57:47;;;;;;;4.13;3.67;;;;;25.00;100763.00;;;;5081005;28;20203;-76
2021/07/26 06:00:23;;;;;;;3.17;2.88;;;;;25.00;100763.00;;;;5088415;28;20226;-76
2021/07/26 06:02:50;;;;;;;8.45;3.38;;;;;25.10;100762.00;;;;5085030;28;20225;-76
2021/07/26 06:05:18;;;;;;;3.97;3.58;;;;;25.10;100767.00;;;;5078686;28;20409;-76
2021/07/26 06:07:45;;;;;;;4.13;3.55;;;;;25.20;100763.00;;;;5084652;28;20198;-75
2021/07/26 06:10:14;;;;;;;4.05;3.38;;;;;25.20;100768.00;;;;5084733;28;20199;-75
2021/07/26 06:12:41;;;;;;;5.55;3.58;;;;;25.30;100761.00;;;;5083833;28;20221;-75
2021/07/26 06:15:09;;;;;;;5.13;3.72;;;;;25.30;100759.00;;;;5077234;28;20589;-75
2021/07/26 06:17:36;;;;;;;4.93;3.25;;;;;25.30;100759.00;;;;5084927;28;20198;-76
2021/07/26 06:20:06;;;;;;;4.72;3.78;;;;;25.40;100767.00;;;;5088626;28;20195;-75
2021/07/26 06:22:33;;;;;;;3.60;3.13;;;;;25.40;100758.00;;;;5085406;28;20771;-77
2021/07/26 06:25:00;;;;;;;4.00;2.92;;;;;25.50;100762.00;;;;5088414;28;20203;-76
2021/07/26 06:27:29;;;;;;;3.42;3.03;;;;;25.50;100762.00;;;;5084047;28;20251;-76
2021/07/26 06:29:56;;;;;;;6.55;3.22;;;;;25.50;100769.00;;;;5086057;28;20309;-75
2021/07/26 06:32:24;;;;;;;6.00;3.53;;;;;25.60;100767.00;;;;5080518;28;20187;-75
2021/07/26 06:34:51;;;;;;;4.90;3.20;;;;;25.60;100764.00;;;;5080035;28;20201;-76
2021/07/26 06:37:18;;;;;;;4.13;3.08;;;;;25.60;100764.00;;;;5085634;28;20225;-75
2021/07/26 06:39:45;;;;;;;5.72;3.22;;;;;25.70;100757.00;;;;5078856;28;20190;-75
2021/07/26 06:42:12;;;;;;;3.60;3.17;;;;;25.70;100760.00;;;;5082263;28;20214;-77
2021/07/26 06:44:41;;;;;;;7.43;4.00;;;;;25.80;100762.00;;;;5083409;28;20198;-77
2021/07/26 06:47:09;;;;;;;7.22;3.38;;;;;25.90;100759.00;;;;5083479;28;20199;-77
2021/07/26 06:49:36;;;;;;;4.22;3.65;;;;;26.00;100760.00;;;;5076635;28;20194;-78
2021/07/26 06:52:04;;;;;;;4.78;3.10;;;;;26.00;100762.00;;;;5074275;28;20203;-77
2021/07/26 06:54:31;;;;;;;5.53;3.47;;;;;26.10;100768.00;;;;5080857;28;20203;-78
2021/07/26 06:56:58;;;;;;;4.85;3.50;;;;;26.10;100776.00;;;;5081536;28;20661;-78
2021/07/26 06:59:25;;;;;;;5.18;3.42;;;;;26.20;100781.00;;;;5077943;28;20202;-78
2021/07/26 07:01:54;;;;;;;3.35;2.80;;;;;26.20;100778.00;;;;5077110;28;20223;-78
2021/07/26 07:04:21;;;;;;;3.83;3.42;;;;;26.20;100792.00;;;;5079260;28;20202;-78
2021/07/26 07:06:48;;;;;;;5.65;4.00;;;;;26.20;100793.00;;;;5073357;28;20221;-77
2021/07/26 07:09:16;;;;;;;4.72;3.85;;;;;26.20;100795.00;;;;5074580;28;20244;-77
2021/07/26 07:11:43;;;;;;;4.93;3.70;;;;;26.20;100797.00;;;;5070274;28;20203;-77
2021/07/26 07:14:11;;;;;;;4.43;3.80;;;;;26.20;100803.00;;;;5068637;28;20202;-77
2021/07/26 07:16:38;;;;;;;3.92;3.05;;;;;26.20;100797.00;;;;5071667;28;20565;-77
2021/07/26 07:19:07;;;;;;;4.60;3.08;;;;;26.10;100800.00;;;;5073030;28;20206;-77
2021/07/26 07:21:34;;;;;;;4.25;3.28;;;;;26.10;100807.00;;;;5077462;28;20227;-77
2021/07/26 07:24:02;;;;;;;4.82;3.08;;;;;26.20;100810.00;;;;5070111;28;20191;-78
2021/07/26 07:26:32;;;;;;;4.28;3.53;;;;;26.10;100806.00;;;;5071538;28;20214;-78
2021/07/26 07:28:59;;;;;;;3.47;3.17;;;;;26.10;100820.00;;;;5074234;28;20768;-78
2021/07/26 07:31:27;;;;;;;4.90;3.38;;;;;26.10;100817.00;;;;5070210;28;20206;-77
2021/07/26 07:33:56;;;;;;;3.33;3.03;;;;;26.10;100820.00;;;;5067985;28;20688;-78
2021/07/26 07:36:24;;;;;;;4.72;3.65;;;;;26.10;100820.00;;;;5074955;28;20238;-78
2021/07/26 07:38:52;;;;;;;4.53;3.70;;;;;26.10;100807.00;;;;5068047;28;20203;-79
2021/07/26 07:41:20;;;;;;;5.47;3.80;;;;;26.10;100812.00;;;;5068252;28;20206;-78
2021/07/26 07:43:47;;;;;;;6.75;4.05;;;;;26.10;100817.00;;;;5071512;28;20219;-79
2021/07/26 07:46:17;;;;;;;6.63;3.88;;;;;26.10;100812.00;;;;5069167;28;20684;-77
2021/07/26 07:48:44;;;;;;;4.18;3.78;;;;;26.10;100815.00;;;;5076918;28;20198;-78
2021/07/26 07:51:11;;;;;;;4.82;3.63;;;;;26.20;100809.00;;;;5080555;28;20201;-78
2021/07/26 07:53:40;;;;;;;4.03;3.63;;;;;26.20;100811.00;;;;5069694;28;20199;-79
2021/07/26 07:56:07;;;;;;;5.25;3.42;;;;;26.20;100814.00;;;;5077012;28;20204;-78
2021/07/26 07:58:35;;;;;;;3.75;3.35;;;;;26.20;100812.00;;;;5078124;28;20201;-77
2021/07/26 08:01:03;;;;;;;4.10;3.10;;;;;26.20;100810.00;;;;5070331;28;20233;-79
2021/07/26 08:03:31;;;;;;;3.90;3.35;;;;;26.20;100815.00;;;;5077347;28;20229;-78
2021/07/26 08:06:00;;;;;;;5.07;3.58;;;;;26.20;100815.00;;;;5084047;28;20213;-78
2021/07/26 08:08:27;;;;;;;4.20;2.85;;;;;26.20;100816.00;;;;5088078;28;20230;-78
2021/07/26 08:10:56;;;;;;;5.82;3.70;;;;;26.20;100819.00;;;;5081968;28;20206;-78
2021/07/26 08:13:24;;;;;;;4.47;3.40;;;;;26.20;100816.00;;;;5074805;28;20207;-78
2021/07/26 08:15:53;;;;;;;4.60;4.05;;;;;26.30;100821.00;;;;5074138;28;20217;-78
2021/07/26 08:18:21;;;;;;;4.13;3.28;;;;;26.30;100826.00;;;;5077062;28;20260;-77
2021/07/26 08:20:49;;;;;;;3.55;2.88;;;;;26.30;100821.00;;;;5076960;28;20229;-75
2021/07/26 08:23:16;;;;;;;3.50;2.78;;;;;26.30;100823.00;;;;5083320;28;20218;-75
2021/07/26 08:25:44;;;;;;;4.90;3.63;;;;;26.30;100825.00;;;;5087447;28;20206;-75
2021/07/26 08:28:12;;;;;;;5.30;3.53;;;;;26.30;100822.00;;;;5080205;28;20205;-75
2021/07/26 08:30:40;;;;;;;4.70;3.30;;;;;26.30;100818.00;;;;5076503;28;20221;-76
2021/07/26 08:33:09;;;;;;;4.07;3.08;;;;;26.30;100823.00;;;;5078134;28;20202;-78
2021/07/26 08:35:36;;;;;;;3.70;3.25;;;;;26.30;100823.00;;;;5083112;28;20201;-78
2021/07/26 08:38:04;;;;;;;4.50;2.92;;;;;26.40;100827.00;;;;5076264;28;20202;-78
2021/07/26 08:40:32;;;;;;;5.93;3.92;;;;;26.50;100825.00;;;;5076636;28;20195;-76
2021/07/26 08:43:04;;;;;;;4.88;3.50;;;;;26.50;100826.00;;;;5073572;28;20230;-77
2021/07/26 08:45:33;;;;;;;3.58;2.88;;;;;26.60;100834.00;;;;5081950;28;20209;-79
2021/07/26 08:48:04;;;;;;;3.42;2.65;;;;;26.60;100820.00;;;;5073486;28;20195;-79
2021/07/26 08:50:34;;;;;;;3.78;3.38;;;;;26.70;100832.00;;;;5082790;28;20252;-79
2021/07/26 08:53:03;;;;;;;3.75;2.75;;;;;26.80;100838.00;;;;5083975;28;20199;-78
2021/07/26 08:55:34;;;;;;;3.15;2.78;;;;;26.80;100839.00;;;;5080507;28;20248;-78
2021/07/26 08:58:01;;;;;;;3.28;2.90;;;;;26.90;100827.00;;;;5073860;28;20657;-78
2021/07/26 09:00:29;;;;;;;4.10;3.10;;;;;26.90;100837.00;;;;5074076;28;20202;-79
2021/07/26 09:02:57;;;;;;;3.10;2.67;;;;;26.90;100843.00;;;;5073333;28;20264;-78
2021/07/26 09:05:25;;;;;;;4.53;2.65;;;;;27.00;100847.00;;;;5078841;28;20206;-80
2021/07/26 09:07:52;;;;;;;5.25;2.88;;;;;27.00;100845.00;;;;5079823;28;20207;-79
2021/07/26 09:10:21;;;;;;;3.67;2.95;;;;;27.00;100848.00;;;;5087207;28;20198;-78
2021/07/26 09:12:52;;;;;;;5.72;3.30;;;;;27.00;100849.00;;;;5073510;28;20208;-78
2021/07/26 09:15:31;;;;;;;3.80;3.03;;;;;27.00;100844.00;;;;5074784;28;20195;-79
2021/07/26 09:18:02;;;;;;;3.45;3.10;;;;;27.10;100847.00;;;;5075556;28;20691;-79
2021/07/26 09:20:30;;;;;;;8.93;3.55;;;;;27.10;100846.00;;;;5087073;28;20218;-79
2021/07/26 09:22:58;;;;;;;4.43;3.97;;;;;27.20;100844.00;;;;5072638;28;20214;-78
2021/07/26 09:25:27;;;;;;;5.57;3.95;;;;;27.20;100844.00;;;;5079538;28;20295;-79
2021/07/26 09:28:04;;;;;;;3.47;3.17;;;;;27.20;100844.00;;;;5078683;28;20191;-78
2021/07/26 09:30:36;;;;;;;4.50;4.13;;;;;27.30;100833.00;;;;5076813;28;20190;-80
2021/07/26 09:33:14;;;;;;;5.47;3.92;;;;;27.40;100834.00;;;;5075935;28;20202;-79
2021/07/26 09:35:42;;;;;;;4.82;3.53;;;;;27.50;100844.00;;;;5087561;28;20198;-77
2021/07/26 09:38:10;;;;;;;4.35;3.95;;;;;27.60;100844.00;;;;5073553;28;20695;-75
2021/07/26 09:40:38;;;;;;;3.72;3.42;;;;;27.70;100844.00;;;;5070504;28;20199;-77
2021/07/26 09:43:22;;;;;;;4.20;3.80;;;;;27.60;100831.00;;;;5074792;28;20304;-78
2021/07/26 09:45:50;;;;;;;4.07;3.15;;;;;27.80;100838.00;;;;5070567;28;20203;-77
2021/07/26 09:48:19;;;;;;;5.65;3.72;;;;;27.80;100839.00;;;;5069599;28;20207;-77
2021/07/26 09:50:48;;;;;;;4.75;4.35;;;;;27.80;100844.00;;;;5070258;28;20198;-77
2021/07/26 09:53:17;;;;;;;3.80;3.50;;;;;27.90;100836.00;;;;5070661;28;20198;-77
2021/07/26 09:55:46;;;;;;;3.38;3.05;;;;;27.90;100844.00;;;;5075732;28;20206;-77
2021/07/26 09:58:15;;;;;;;3.75;3.45;;;;;28.00;100834.00;;;;5082511;28;20198;-78
2021/07/26 10:00:43;;;;;;;3.40;2.67;;;;;28.10;100833.00;;;;5082684;28;20711;-78
2021/07/26 10:03:13;;;;;;;3.17;2.92;;;;;28.30;100832.00;;;;5069442;28;20230;-77
2021/07/26 10:05:43;;;;;;;4.53;3.10;;;;;28.50;100829.00;;;;5069850;28;20199;-76
2021/07/26 10:08:11;;;;;;;2.55;2.33;;;;;28.70;100835.00;;;;5085483;28;20206;-77
2021/07/26 10:10:39;;;;;;;2.28;2.08;;;;;28.80;100833.00;;;;5074253;28;20194;-79
2021/07/26 10:13:08;;;;;;;2.28;2.03;;;;;29.00;100838.00;;;;5073612;28;20209;-77
2021/07/26 10:15:37;;;;;;;3.88;2.00;;;;;29.10;100844.00;;;;5083766;28;20202;-79
2021/07/26 10:18:05;;;;;;;3.63;2.38;;;;;29.30;100844.00;;;;5071039;28;20603;-78
2021/07/26 10:20:37;;;;;;;2.08;1.83;;;;;29.40;100835.00;;;;5081234;28;20214;-77
2021/07/26 10:23:10;;;;;;;2.15;2.00;;;;;29.50;100832.00;;;;5072402;28;20253;-77
2021/07/26 10:25:42;;;;;;;4.28;1.58;;;;;29.60;100837.00;;;;5076407;28;20205;-77
2021/07/26 10:28:17;;;;;;;2.08;1.50;;;;;29.60;100833.00;;;;5073514;28;20187;-77
2021/07/26 10:30:44;;;;;;;2.08;1.88;;;;;29.70;100835.00;;;;5070509;28;20194;-77
2021/07/26 10:33:12;;;;;;;2.55;1.98;;;;;29.60;100832.00;;;;5080525;28;20199;-76
2021/07/26 10:35:49;;;;;;;3.03;2.20;;;;;29.50;100836.00;;;;5071688;28;20203;-76
2021/07/26 10:38:55;;;;;;;1.50;1.40;;;;;29.40;100831.00;;;;5069148;28;20194;-77
2021/07/26 10:42:00;;;;;;;2.17;1.85;;;;;29.40;100836.00;;;;5068967;28;20293;-75
2021/07/26 10:44:47;;;;;;;1.33;1.20;;;;;29.30;100824.00;;;;5072256;28;20225;-76
2021/07/26 10:47:18;;;;;;;1.85;1.70;;;;;29.40;100833.00;;;;5081179;28;20198;-75
2021/07/26 10:50:16;;;;;;;1.40;1.30;;;;;29.30;100823.00;;;;5083006;28;20366;-75
2021/07/26 10:52:50;;;;;;;2.13;1.50;;;;;29.50;100843.00;;;;5068223;28;20238;-77
2021/07/26 10:55:57;;;;;;;1.90;1.70;;;;;29.60;100832.00;;;;5075438;28;20194;-76
2021/07/26 10:59:04;;;;;;;1.58;1.48;;;;;29.70;100826.00;;;;5079961;28;20205;-75
2021/07/26 11:01:42;;;;;;;1.70;1.60;;;;;29.80;100836.00;;;;5074789;28;20205;-75
2021/07/26 11:04:38;;;;;;;3.08;1.30;;;;;29.90;100834.00;;;;5069181;28;20759;-76
2021/07/26 11:07:08;;;;;;;7.47;1.63;;;;;30.00;100833.00;;;;5072567;28;20226;-75
2021/07/26 11:09:48;;;;;;;2.13;1.65;;;;;30.00;100838.00;;;;5075872;28;20281;-75
2021/07/26 11:12:38;;;;;;;1.52;1.38;;;;;30.20;100843.00;;;;5069670;28;20198;-75
2021/07/26 11:15:16;;;;;;;1.65;1.48;;;;;30.20;100828.00;;;;5084775;28;20191;-75
2021/07/26 11:18:19;;;;;;;1.92;1.35;;;;;30.10;100839.00;;;;5069670;28;20203;-75
2021/07/26 11:21:05;;;;;;;4.93;1.45;;;;;30.10;100848.00;;;;5080957;28;20225;-75
2021/07/26 11:23:41;;;;;;;1.63;1.50;;;;;30.10;100851.00;;;;5071284;28;21042;-75
2021/07/26 11:26:18;;;;;;;1.60;1.38;;;;;30.00;100848.00;;;;5069557;28;20201;-74
2021/07/26 11:28:46;;;;;;;4.10;1.58;;;;;29.90;100857.00;;;;5069206;28;20221;-76
2021/07/26 11:31:24;;;;;;;2.35;1.48;;;;;29.70;100856.00;;;;5073614;28;20303;-76
2021/07/26 11:33:53;;;;;;;1.60;1.38;;;;;29.70;100856.00;;;;5069313;28;20210;-75
2021/07/26 11:36:20;;;;;;;1.55;1.33;;;;;29.50;100849.00;;;;5067441;28;20241;-74
2021/07/26 11:38:59;;;;;;;2.50;1.17;;;;;29.20;100851.00;;;;5068320;28;20198;-74
2021/07/26 11:41:26;;;;;;;1.10;1.00;;;;;29.20;100856.00;;;;5068779;28;20203;-74
2021/07/26 11:43:54;;;;;;;1.30;1.20;;;;;29.00;100859.00;;;;5067410;28;20218;-74
2021/07/26 11:46:22;;;;;;;0.90;0.85;;;;;28.90;100852.00;;;;5067129;28;20214;-74
2021/07/26 11:48:55;;;;;;;1.25;0.80;;;;;28.70;100856.00;;;;5067236;28;20198;-75
2021/07/26 11:51:30;;;;;;;1.20;1.10;;;;;28.60;100856.00;;;;5066630;28;20202;-75
2021/07/26 11:53:59;;;;;;;1.92;0.85;;;;;28.60;100854.00;;;;5073441;28;20209;-75
2021/07/26 11:56:28;;;;;;;1.65;1.20;;;;;28.50;100853.00;;;;5069626;28;20301;-76
2021/07/26 11:59:15;;;;;;;1.35;1.20;;;;;28.50;100852.00;;;;5069600;28;20565;-75
2021/07/26 12:01:46;;;;;;;1.10;1.00;;;;;28.40;100849.00;;;;5074887;28;20213;-76
2021/07/26 12:04:16;;;;;;;2.35;1.27;;;;;28.40;100844.00;;;;5068389;28;20222;-75
2021/07/26 12:06:51;;;;;;;2.38;1.30;;;;;28.30;100846.00;;;;5076113;28;20213;-74
2021/07/26 12:09:18;;;;;;;1.83;1.63;;;;;28.40;100845.00;;;;5071653;28;20198;-74
2021/07/26 12:11:45;;;;;;;1.70;1.60;;;;;28.40;100839.00;;;;5077121;28;20202;-74
2021/07/26 12:14:26;;;;;;;2.38;2.17;;;;;28.40;100845.00;;;;5067827;28;20209;-74
2021/07/26 12:17:05;;;;;;;1.60;1.50;;;;;28.50;100828.00;;;;5070729;28;20233;-74
2021/07/26 12:19:34;;;;;;;2.55;1.92;;;;;28.60;100825.00;;;;5070878;28;20199;-75
2021/07/26 12:22:39;;;;;;;2.53;2.00;;;;;28.50;100833.00;;;;5066267;28;20701;-75